DAOI

Ech Cheliff Airport

Airport
ICAO code
DAOI
IATA Code
QAS
Summary
ICAO Region
AFI
ICAO Territory
Location

, Chlef

Serving
Ech-cheliff
Elevation
463 ft
Coordinates
36° 12' 46" N , 1° 19' 54" E
Metar
DAOI 270700Z 24004KT 9999 FEW023 SCT026 09/06 Q1010

Runways

Designator Length Width Surface Rops
7/25 1650 30 ASP No/No

Airport map

Aerial View

SKYbrary Partners:

Safety knowledge contributed by: